Time;durP1;ratioP1;P1;durP2;ratioP2;P2;SDS_P1;SDS_P2;PMS_P1;PMS_P2;Temp;Humidity;BMP_temperature;BMP_pressure;BME280_temperature;BME280_humidity;BME280_pressure;Samples;Min_cycle;Max_cycle;Signal;HPM_P1;HPM_P2
2023/11/05 00:03:55;;;;;;;4.53;2.10;;;23.40;59.80;;;;;;10313017;28;20201;-55
2023/11/05 00:08:59;;;;;;;3.58;2.05;;;23.40;59.60;;;;;;10319258;28;20245;-53
2023/11/05 00:14:04;;;;;;;3.28;1.85;;;23.40;59.60;;;;;;10318511;28;20767;-51
2023/11/05 00:19:08;;;;;;;2.88;1.42;;;23.40;59.60;;;;;;10301893;28;20244;-52
2023/11/05 00:24:12;;;;;;;2.83;1.70;;;23.40;60.40;;;;;;10328688;28;20309;-55
2023/11/05 00:29:17;;;;;;;4.68;1.90;;;23.40;59.70;;;;;;10325094;28;20371;-56
2023/11/05 00:34:20;;;;;;;2.95;1.80;;;23.40;59.70;;;;;;10299054;28;20222;-52
2023/11/05 00:39:24;;;;;;;2.38;1.38;;;23.40;59.70;;;;;;10313991;28;20246;-55
2023/11/05 00:44:29;;;;;;;2.92;1.80;;;23.40;59.70;;;;;;10330079;28;20225;-54
2023/11/05 00:49:33;;;;;;;2.58;1.40;;;23.40;59.60;;;;;;10313616;28;20237;-55
2023/11/05 00:54:37;;;;;;;3.38;1.77;;;23.40;59.70;;;;;;10327579;28;20271;-54
2023/11/05 00:59:41;;;;;;;3.60;1.70;;;23.40;59.60;;;;;;10322215;28;20252;-52
2023/11/05 01:04:45;;;;;;;2.25;1.40;;;23.40;59.60;;;;;;10326642;28;20197;-53
2023/11/05 01:09:49;;;;;;;3.17;1.48;;;23.40;59.70;;;;;;10328091;28;20222;-54
2023/11/05 01:14:55;;;;;;;3.22;1.80;;;23.40;59.70;;;;;;10325838;28;20198;-55
2023/11/05 01:19:59;;;;;;;2.75;1.50;;;23.40;59.70;;;;;;10329123;28;20268;-53
2023/11/05 01:25:02;;;;;;;2.20;1.45;;;23.40;59.60;;;;;;10318987;28;20264;-54
2023/11/05 01:30:09;;;;;;;3.20;1.45;;;23.40;59.60;;;;;;10313967;28;20205;-52
2023/11/05 01:35:13;;;;;;;2.88;1.17;;;23.40;59.70;;;;;;10320251;28;20200;-55
2023/11/05 01:40:16;;;;;;;2.45;1.60;;;23.40;59.60;;;;;;10323361;28;20205;-55
2023/11/05 01:45:22;;;;;;;4.45;1.65;;;23.40;59.60;;;;;;10319697;28;20221;-55
2023/11/05 01:50:26;;;;;;;1.75;1.20;;;23.40;59.60;;;;;;10319163;28;20255;-52
2023/11/05 01:55:30;;;;;;;1.98;1.40;;;23.40;59.70;;;;;;10327435;28;20264;-54
2023/11/05 02:00:35;;;;;;;2.25;1.35;;;23.40;59.70;;;;;;10325436;28;20579;-53
2023/11/05 02:05:39;;;;;;;3.13;1.33;;;23.40;59.70;;;;;;10325259;28;20230;-54
2023/11/05 02:10:43;;;;;;;2.30;1.23;;;23.40;59.60;;;;;;10318937;28;20909;-52
2023/11/05 02:15:48;;;;;;;2.40;1.30;;;23.40;59.70;;;;;;10306711;28;20689;-54
2023/11/05 02:20:52;;;;;;;2.60;1.27;;;23.40;60.40;;;;;;10325603;28;20220;-53
2023/11/05 02:25:57;;;;;;;1.90;1.27;;;23.40;59.70;;;;;;10325833;28;20701;-57
2023/11/05 02:31:01;;;;;;;2.03;1.30;;;23.40;59.70;;;;;;10311732;28;20254;-54
2023/11/05 02:36:05;;;;;;;2.13;1.20;;;23.40;59.70;;;;;;10308146;28;20221;-54
2023/11/05 02:41:11;;;;;;;2.75;1.33;;;23.40;59.70;;;;;;10321824;28;20202;-54
2023/11/05 02:46:15;;;;;;;2.65;1.30;;;23.40;59.70;;;;;;10317721;28;20240;-54
2023/11/05 02:51:18;;;;;;;1.95;1.33;;;23.40;59.70;;;;;;10311345;28;20726;-52
2023/11/05 02:56:23;;;;;;;1.15;0.90;;;23.40;59.70;;;;;;10324194;28;20221;-52
2023/11/05 03:01:28;;;;;;;2.47;1.48;;;23.40;59.70;;;;;;10302561;28;20217;-56
2023/11/05 03:06:32;;;;;;;2.35;1.25;;;23.40;59.70;;;;;;10314052;28;20292;-53
2023/11/05 03:11:37;;;;;;;2.35;1.17;;;23.40;59.70;;;;;;10302970;28;20249;-53
2023/11/05 03:16:41;;;;;;;1.10;1.00;;;23.40;59.70;;;;;;10328260;28;20229;-52
2023/11/05 03:21:44;;;;;;;2.97;1.30;;;23.40;59.70;;;;;;10313239;28;20202;-54
2023/11/05 03:26:49;;;;;;;2.65;1.30;;;23.40;59.70;;;;;;10305116;28;20217;-55
2023/11/05 03:31:53;;;;;;;2.35;1.15;;;23.40;59.70;;;;;;10308598;28;20914;-53
2023/11/05 03:36:57;;;;;;;2.05;1.00;;;23.40;59.70;;;;;;10329833;28;20759;-54
2023/11/05 03:42:02;;;;;;;1.85;1.00;;;23.40;59.70;;;;;;10303282;28;20194;-53
2023/11/05 03:47:06;;;;;;;1.70;0.88;;;23.40;59.70;;;;;;10322623;28;20229;-55
2023/11/05 03:52:11;;;;;;;2.00;1.00;;;23.40;59.70;;;;;;10314368;28;20315;-56
2023/11/05 03:57:16;;;;;;;3.08;1.30;;;23.40;59.70;;;;;;10332156;28;20783;-55
2023/11/05 04:02:22;;;;;;;1.95;0.98;;;23.40;59.70;;;;;;10316735;28;20663;-55
2023/11/05 04:07:25;;;;;;;1.88;1.10;;;23.40;59.70;;;;;;10316774;28;20226;-53
2023/11/05 04:12:30;;;;;;;2.25;1.08;;;23.40;59.70;;;;;;10331782;28;20217;-54
2023/11/05 04:17:34;;;;;;;3.17;1.27;;;23.40;59.70;;;;;;10314997;28;20438;-53
2023/11/05 04:22:38;;;;;;;1.67;1.00;;;23.40;59.70;;;;;;10329405;28;20205;-54
2023/11/05 04:27:43;;;;;;;3.90;1.17;;;23.40;59.70;;;;;;10327385;28;20222;-49
2023/11/05 04:32:46;;;;;;;25.98;2.80;;;23.40;59.80;;;;;;10322936;28;20249;-54
2023/11/05 04:37:50;;;;;;;12.73;1.95;;;23.40;59.70;;;;;;10316582;28;20315;-52
2023/11/05 04:42:55;;;;;;;6.25;1.80;;;23.50;59.80;;;;;;10320118;28;20252;-52
2023/11/05 04:47:58;;;;;;;4.70;1.55;;;23.40;59.80;;;;;;10322444;28;20318;-54
2023/11/05 04:53:02;;;;;;;4.82;1.50;;;23.40;59.70;;;;;;10327854;28;20249;-54
2023/11/05 04:58:11;;;;;;;12.77;1.63;;;23.40;59.80;;;;;;10257214;28;20534;-55
2023/11/05 05:03:14;;;;;;;14.98;1.92;;;23.40;59.80;;;;;;10305729;28;20222;-52
2023/11/05 05:08:18;;;;;;;6.57;1.65;;;23.40;59.80;;;;;;10328401;28;20446;-52
2023/11/05 05:13:23;;;;;;;3.05;1.00;;;23.40;59.80;;;;;;10327755;28;20249;-52
2023/11/05 05:18:27;;;;;;;5.53;1.20;;;23.40;59.80;;;;;;10305389;28;20296;-54
2023/11/05 05:23:30;;;;;;;3.97;1.10;;;23.40;59.80;;;;;;10314146;28;20662;-52
2023/11/05 05:28:36;;;;;;;9.38;1.60;;;23.40;59.80;;;;;;10324354;28;20307;-50
2023/11/05 05:33:39;;;;;;;5.43;1.00;;;23.40;59.80;;;;;;10299588;28;20253;-54
2023/11/05 05:38:43;;;;;;;5.03;1.00;;;23.40;59.80;;;;;;10308069;28;21546;-54
2023/11/05 05:43:48;;;;;;;4.03;1.42;;;23.40;59.80;;;;;;10295743;28;20194;-52
2023/11/05 05:48:52;;;;;;;3.42;1.17;;;23.40;59.80;;;;;;10251426;28;20252;-52
2023/11/05 05:53:55;;;;;;;6.53;1.00;;;23.40;59.80;;;;;;10308728;28;20718;-53
2023/11/05 05:59:00;;;;;;;2.67;1.10;;;23.40;59.80;;;;;;10316433;28;20225;-54
2023/11/05 06:04:06;;;;;;;3.38;0.98;;;23.40;59.80;;;;;;10326735;28;20220;-52
2023/11/05 06:09:12;;;;;;;2.17;0.65;;;23.40;59.80;;;;;;10318701;28;20312;-54
2023/11/05 06:14:17;;;;;;;1.95;0.80;;;23.40;59.80;;;;;;10304398;28;20222;-51
2023/11/05 06:19:28;;;;;;;3.30;0.90;;;23.40;59.90;;;;;;10304497;28;20246;-52
2023/11/05 06:24:32;;;;;;;2.97;0.93;;;23.40;59.80;;;;;;10311432;28;20223;-53
2023/11/05 06:29:37;;;;;;;1.63;0.70;;;23.40;59.80;;;;;;10325790;28;20229;-51
2023/11/05 06:34:41;;;;;;;2.55;0.80;;;23.40;59.80;;;;;;10310416;28;20249;-51
2023/11/05 06:39:44;;;;;;;2.42;0.90;;;23.40;59.80;;;;;;10326213;28;20225;-51
2023/11/05 06:44:49;;;;;;;1.48;0.70;;;23.40;60.60;;;;;;10318208;28;20249;-55
2023/11/05 06:49:53;;;;;;;1.48;0.77;;;23.40;59.80;;;;;;10318966;28;20229;-52
2023/11/05 06:54:57;;;;;;;2.90;0.98;;;23.40;59.80;;;;;;10256436;28;20246;-50
2023/11/05 07:00:04;;;;;;;2.58;0.80;;;23.40;59.80;;;;;;10317134;28;20248;-50
2023/11/05 07:05:09;;;;;;;2.20;0.88;;;23.40;59.90;;;;;;10319126;28;20207;-53
2023/11/05 07:10:13;;;;;;;3.08;0.70;;;23.40;59.90;;;;;;10278781;28;20268;-51
2023/11/05 07:15:19;;;;;;;1.02;0.70;;;23.40;59.90;;;;;;10335311;28;20225;-53
2023/11/05 07:20:22;;;;;;;2.55;0.98;;;23.40;59.90;;;;;;10314038;28;20218;-52
2023/11/05 07:25:27;;;;;;;1.15;0.70;;;23.40;59.90;;;;;;10320332;28;20214;-56
2023/11/05 07:30:32;;;;;;;1.33;0.85;;;23.40;59.90;;;;;;10328730;28;20209;-52
2023/11/05 07:35:36;;;;;;;0.63;0.55;;;23.40;59.90;;;;;;10329723;28;20641;-54
2023/11/05 07:40:40;;;;;;;3.85;0.90;;;23.40;59.90;;;;;;10314578;28;20284;-50
2023/11/05 07:45:45;;;;;;;1.70;0.50;;;23.40;59.90;;;;;;10325798;28;20253;-51
2023/11/05 07:50:50;;;;;;;1.40;0.57;;;23.40;59.20;;;;;;10324462;28;20283;-54
2023/11/05 07:55:55;;;;;;;0.35;0.32;;;23.10;58.60;;;;;;10322104;28;20315;-53
2023/11/05 08:01:00;;;;;;;0.90;0.73;;;22.80;58.10;;;;;;10326410;28;20728;-51
2023/11/05 08:06:04;;;;;;;1.27;0.90;;;22.60;57.80;;;;;;10324927;28;20249;-55
2023/11/05 08:11:07;;;;;;;0.80;0.73;;;22.40;57.70;;;;;;10310933;28;20694;-53
2023/11/05 08:16:13;;;;;;;1.25;0.73;;;22.20;57.40;;;;;;10286473;28;20222;-54
2023/11/05 08:21:20;;;;;;;0.70;0.60;;;22.10;57.20;;;;;;10324729;28;20288;-52
2023/11/05 08:26:25;;;;;;;1.92;0.70;;;22.00;57.20;;;;;;10322121;28;20271;-48
2023/11/05 08:31:32;;;;;;;1.10;0.60;;;21.90;57.30;;;;;;10321867;28;20228;-52
2023/11/05 08:36:38;;;;;;;1.10;0.55;;;22.20;57.60;;;;;;10297231;28;20252;-44
2023/11/05 08:43:55;;;;;;;2.08;0.65;;;22.60;57.30;;;;;;10489996;27;20579;-46
2023/11/05 08:55:28;;;;;;;6.40;0.98;;;22.80;57.20;;;;;;10485737;27;21123;-48
2023/11/05 09:00:34;;;;;;;2.60;0.90;;;22.80;58.10;;;;;;10467544;28;20280;-47
2023/11/05 09:05:39;;;;;;;2.42;0.70;;;23.00;58.30;;;;;;10468405;28;20258;-47
2023/11/05 09:10:44;;;;;;;2.42;0.77;;;23.10;58.20;;;;;;10467642;28;20235;-44
2023/11/05 09:15:49;;;;;;;1.92;0.82;;;23.20;58.20;;;;;;10466854;28;20254;-48
2023/11/05 09:20:56;;;;;;;2.65;0.90;;;23.30;58.20;;;;;;10467596;28;20218;-44
2023/11/05 09:26:01;;;;;;;1.25;0.70;;;23.40;58.30;;;;;;10468997;28;20254;-49
2023/11/05 09:31:05;;;;;;;3.92;0.80;;;23.40;58.30;;;;;;10465550;28;20296;-46
2023/11/05 09:36:09;;;;;;;2.42;0.90;;;23.40;58.30;;;;;;10467203;28;20250;-46
2023/11/05 09:41:18;;;;;;;3.67;0.90;;;23.40;58.30;;;;;;10467828;28;20236;-47
2023/11/05 09:46:25;;;;;;;4.50;1.10;;;23.40;58.40;;;;;;10464217;28;20216;-49
2023/11/05 09:51:28;;;;;;;4.55;0.70;;;23.50;58.40;;;;;;10473326;28;20785;-46
2023/11/05 09:56:33;;;;;;;4.25;0.95;;;23.50;58.40;;;;;;10466841;28;20224;-48
2023/11/05 10:01:37;;;;;;;5.32;0.90;;;23.50;58.50;;;;;;10464748;28;20196;-45
2023/11/05 10:06:40;;;;;;;2.05;0.70;;;23.50;58.50;;;;;;10441120;28;20285;-46
2023/11/05 10:11:46;;;;;;;1.35;0.68;;;23.50;58.60;;;;;;10437371;28;20259;-46
2023/11/05 10:16:49;;;;;;;1.65;0.88;;;23.50;58.70;;;;;;10433198;28;20702;-44
2023/11/05 10:21:53;;;;;;;2.65;1.02;;;23.40;58.60;;;;;;10437916;28;20631;-45
2023/11/05 10:26:58;;;;;;;1.52;1.10;;;23.50;58.80;;;;;;10433582;28;20768;-45
2023/11/05 10:32:03;;;;;;;1.98;1.23;;;23.40;58.80;;;;;;10433557;28;20262;-46
2023/11/05 10:37:08;;;;;;;2.00;1.30;;;23.40;58.80;;;;;;10437906;28;20336;-46
2023/11/05 10:42:13;;;;;;;2.47;1.20;;;23.40;58.80;;;;;;10444799;28;20254;-45
2023/11/05 10:47:18;;;;;;;3.08;1.30;;;23.40;58.90;;;;;;10438387;28;20215;-46
2023/11/05 10:52:22;;;;;;;2.58;1.63;;;23.40;58.90;;;;;;10402744;28;20265;-45
2023/11/05 10:57:43;;;;;;;4.15;1.52;;;23.40;58.90;;;;;;10376560;28;20314;-46
2023/11/05 11:02:49;;;;;;;3.00;1.77;;;23.40;58.90;;;;;;10434947;28;20250;-47
2023/11/05 11:07:58;;;;;;;6.82;2.80;;;23.40;58.90;;;;;;10436079;28;20243;-49
2023/11/05 11:13:12;;;;;;;2.00;1.27;;;23.50;59.00;;;;;;10436993;28;20707;-48
2023/11/05 11:18:19;;;;;;;5.03;1.85;;;23.50;58.90;;;;;;10433635;28;20246;-48
2023/11/05 11:23:27;;;;;;;6.70;1.67;;;23.50;58.80;;;;;;10427499;28;20216;-50
2023/11/05 11:28:34;;;;;;;4.00;1.67;;;23.50;58.90;;;;;;10435871;28;20733;-51
2023/11/05 11:33:37;;;;;;;10.05;1.95;;;23.50;59.00;;;;;;10446410;28;20791;-47
2023/11/05 11:38:41;;;;;;;3.92;1.60;;;23.60;59.10;;;;;;10437328;28;20304;-47
2023/11/05 11:43:47;;;;;;;3.03;1.50;;;23.60;59.10;;;;;;10433721;28;20244;-48
2023/11/05 11:48:51;;;;;;;4.57;1.55;;;23.60;59.10;;;;;;10407027;28;20224;-46
2023/11/05 11:53:55;;;;;;;3.25;1.65;;;23.70;59.20;;;;;;10400156;28;20905;-47
2023/11/05 11:59:05;;;;;;;2.65;1.33;;;23.70;59.20;;;;;;10396381;28;20252;-50
2023/11/05 12:04:08;;;;;;;3.17;1.55;;;23.70;59.30;;;;;;10403990;28;20250;-45
2023/11/05 12:09:21;;;;;;;3.03;1.35;;;23.70;59.30;;;;;;10400232;28;20321;-49
2023/11/05 12:14:27;;;;;;;2.58;1.60;;;23.70;59.40;;;;;;10402032;28;20247;-45
2023/11/05 12:19:34;;;;;;;4.05;1.50;;;23.70;59.50;;;;;;10402161;28;20736;-47
2023/11/05 12:24:38;;;;;;;3.63;1.70;;;23.70;59.50;;;;;;10393558;28;20754;-47
2023/11/05 12:29:45;;;;;;;2.05;1.38;;;23.70;59.50;;;;;;10393365;28;20301;-49
2023/11/05 12:34:49;;;;;;;3.22;1.77;;;23.70;59.50;;;;;;10399269;28;20243;-46
2023/11/05 12:39:52;;;;;;;4.78;1.83;;;23.70;59.60;;;;;;10403498;28;20231;-47
2023/11/05 12:44:57;;;;;;;2.67;1.60;;;23.70;59.60;;;;;;10405031;28;20227;-47
2023/11/05 12:50:02;;;;;;;3.22;1.80;;;23.70;59.60;;;;;;10397529;28;20208;-47
2023/11/05 12:55:06;;;;;;;3.00;1.50;;;23.60;60.30;;;;;;10404497;28;20220;-46
2023/11/05 13:00:13;;;;;;;2.28;1.63;;;23.60;59.70;;;;;;10403878;28;20270;-45
2023/11/05 13:05:17;;;;;;;5.10;1.90;;;23.60;59.80;;;;;;10398982;28;20213;-51
2023/11/05 13:10:21;;;;;;;5.97;1.98;;;23.50;59.70;;;;;;10401062;28;20228;-48
2023/11/05 13:15:26;;;;;;;4.25;1.70;;;23.50;59.70;;;;;;10391190;28;20308;-51
2023/11/05 13:20:32;;;;;;;4.85;2.50;;;23.50;59.80;;;;;;10399504;28;20476;-45
2023/11/05 13:25:36;;;;;;;3.50;2.78;;;23.50;59.80;;;;;;10393629;28;20256;-48
2023/11/05 13:30:41;;;;;;;6.25;3.45;;;23.60;59.90;;;;;;10390809;28;20633;-45
2023/11/05 13:35:47;;;;;;;10.15;4.40;;;23.60;59.80;;;;;;10392052;28;20271;-43
2023/11/05 13:40:50;;;;;;;5.75;3.72;;;23.70;59.90;;;;;;10397153;28;20228;-46
2023/11/05 13:45:56;;;;;;;9.43;5.25;;;23.70;59.80;;;;;;10402778;28;20741;-45
2023/11/05 13:50:59;;;;;;;10.00;6.18;;;23.70;59.80;;;;;;10398408;28;20239;-45
2023/11/05 13:56:03;;;;;;;12.25;7.43;;;23.70;59.80;;;;;;10401115;28;20256;-47
2023/11/05 14:01:08;;;;;;;15.20;8.85;;;23.70;59.80;;;;;;10399315;28;20200;-45
2023/11/05 14:06:12;;;;;;;10.35;7.57;;;23.70;59.80;;;;;;10397613;28;20245;-47
2023/11/05 14:11:17;;;;;;;9.82;7.38;;;23.80;59.80;;;;;;10397248;28;20228;-47
2023/11/05 14:16:22;;;;;;;11.50;7.38;;;23.70;59.80;;;;;;10399623;28;20786;-44
2023/11/05 14:21:26;;;;;;;9.65;6.65;;;23.70;59.80;;;;;;10403358;28;20220;-50
2023/11/05 14:26:29;;;;;;;10.75;6.78;;;23.80;59.80;;;;;;10395129;28;20240;-44
2023/11/05 14:31:36;;;;;;;9.18;6.93;;;23.80;59.80;;;;;;10400570;28;20209;-49
2023/11/05 14:36:40;;;;;;;15.93;7.15;;;23.80;59.80;;;;;;10415909;28;20615;-49
2023/11/05 14:41:46;;;;;;;10.15;6.85;;;23.80;59.80;;;;;;10414081;28;20267;-52
2023/11/05 14:46:52;;;;;;;9.65;6.32;;;23.80;59.80;;;;;;10418495;28;20243;-46
2023/11/05 14:51:56;;;;;;;11.77;6.88;;;23.70;59.80;;;;;;10413258;28;20212;-49
2023/11/05 14:57:01;;;;;;;11.15;6.88;;;23.70;59.90;;;;;;10401731;28;20224;-47
2023/11/05 15:02:06;;;;;;;9.45;6.05;;;23.70;59.90;;;;;;10400257;28;20278;-45
2023/11/05 15:07:11;;;;;;;9.25;5.90;;;23.60;59.80;;;;;;10404128;28;20262;-44
2023/11/05 15:12:14;;;;;;;8.68;5.22;;;23.60;59.80;;;;;;10409886;28;20200;-46
2023/11/05 15:17:27;;;;;;;10.55;5.85;;;23.60;59.80;;;;;;10396716;28;20252;-50
2023/11/05 15:22:31;;;;;;;9.48;5.63;;;23.50;59.80;;;;;;10408841;28;20223;-45
2023/11/05 15:27:36;;;;;;;8.18;5.82;;;23.50;59.80;;;;;;10397560;28;20252;-51
2023/11/05 15:32:44;;;;;;;9.07;5.90;;;23.50;59.80;;;;;;10396237;28;20255;-46
2023/11/05 15:37:48;;;;;;;8.38;4.80;;;23.50;59.80;;;;;;10407040;28;20251;-50
2023/11/05 15:42:51;;;;;;;8.15;5.82;;;23.50;59.80;;;;;;10401966;28;20869;-45
2023/11/05 15:47:56;;;;;;;11.82;5.32;;;23.50;59.90;;;;;;10402749;28;21218;-49
2023/11/05 15:53:00;;;;;;;8.50;5.32;;;23.50;59.80;;;;;;10400864;28;20307;-48
2023/11/05 15:58:04;;;;;;;10.35;5.10;;;23.50;59.80;;;;;;10397534;28;20309;-42
2023/11/05 16:03:09;;;;;;;7.70;4.80;;;23.50;59.90;;;;;;10387815;28;20244;-43
2023/11/05 16:08:14;;;;;;;9.73;5.03;;;23.50;59.90;;;;;;10396660;28;20304;-47
2023/11/05 16:13:18;;;;;;;8.75;5.13;;;23.50;59.90;;;;;;10397237;28;20205;-47
2023/11/05 16:18:25;;;;;;;6.97;4.28;;;23.50;59.90;;;;;;10388797;28;20318;-47
2023/11/05 16:23:29;;;;;;;6.53;4.50;;;23.50;59.90;;;;;;10398696;28;20297;-47
2023/11/05 16:28:32;;;;;;;7.55;4.40;;;23.50;59.90;;;;;;10394013;28;20289;-47
2023/11/05 16:33:37;;;;;;;5.68;3.63;;;23.50;60.00;;;;;;10392518;28;20236;-45
2023/11/05 16:38:41;;;;;;;6.00;4.07;;;23.40;59.90;;;;;;10396643;28;20243;-46
2023/11/05 16:43:45;;;;;;;5.35;4.25;;;23.40;60.00;;;;;;10392575;28;20236;-47
2023/11/05 16:48:50;;;;;;;7.20;3.85;;;23.40;60.00;;;;;;10397878;28;20251;-45
2023/11/05 16:53:53;;;;;;;7.50;3.67;;;23.40;60.80;;;;;;10395737;28;20256;-45
2023/11/05 16:58:57;;;;;;;9.30;4.00;;;23.40;60.10;;;;;;10396977;28;20643;-44
2023/11/05 17:04:02;;;;;;;10.75;3.70;;;23.40;60.10;;;;;;10392970;28;20232;-44
2023/11/05 17:09:07;;;;;;;7.25;3.45;;;23.40;60.10;;;;;;10391627;28;20255;-45
2023/11/05 17:14:11;;;;;;;5.05;3.65;;;23.40;60.10;;;;;;10395825;28;20964;-45
2023/11/05 17:19:16;;;;;;;4.97;3.70;;;23.40;60.10;;;;;;10410982;28;20313;-43
2023/11/05 17:24:20;;;;;;;5.90;3.45;;;23.40;60.10;;;;;;10399488;28;20278;-47
2023/11/05 17:29:24;;;;;;;6.15;3.92;;;23.40;60.10;;;;;;10397395;28;20459;-44
2023/11/05 17:34:29;;;;;;;6.20;3.58;;;23.40;60.10;;;;;;10396801;28;20703;-47
2023/11/05 17:39:33;;;;;;;5.40;3.45;;;23.40;60.10;;;;;;10408143;28;20252;-50
2023/11/05 17:44:36;;;;;;;6.00;3.70;;;23.40;60.10;;;;;;10405154;28;20676;-46
2023/11/05 17:49:42;;;;;;;6.00;3.35;;;23.40;60.10;;;;;;10403637;28;20244;-46
2023/11/05 17:54:47;;;;;;;6.30;3.45;;;23.40;60.10;;;;;;10403604;28;20282;-47
2023/11/05 17:59:50;;;;;;;4.13;3.28;;;23.40;60.10;;;;;;10397183;28;20252;-47
2023/11/05 18:04:55;;;;;;;6.03;3.83;;;23.40;60.20;;;;;;10403097;28;20228;-44
2023/11/05 18:09:59;;;;;;;11.23;3.97;;;23.40;60.20;;;;;;10390077;28;20731;-43
2023/11/05 18:15:03;;;;;;;6.57;3.65;;;23.40;60.20;;;;;;10404941;28;20252;-49
2023/11/05 18:20:11;;;;;;;7.53;3.80;;;23.40;60.20;;;;;;10413121;28;20200;-46
2023/11/05 18:25:18;;;;;;;6.65;3.92;;;23.40;60.20;;;;;;10341366;28;20877;-54
2023/11/05 18:30:21;;;;;;;9.82;4.32;;;23.40;60.20;;;;;;10401203;28;20286;-43
2023/11/05 18:35:27;;;;;;;8.10;3.85;;;23.40;60.20;;;;;;10400946;28;20301;-49
2023/11/05 18:40:31;;;;;;;6.93;3.90;;;23.40;60.20;;;;;;10401356;28;20738;-45
2023/11/05 18:45:34;;;;;;;8.48;4.20;;;23.40;60.20;;;;;;10395459;28;20309;-43
2023/11/05 18:50:40;;;;;;;4.85;3.28;;;23.40;60.20;;;;;;10402531;28;20232;-43
2023/11/05 18:55:44;;;;;;;8.63;3.85;;;23.40;60.20;;;;;;10397836;28;20313;-43
2023/11/05 19:00:48;;;;;;;6.25;3.67;;;23.40;60.30;;;;;;10400553;28;20224;-45
2023/11/05 19:05:53;;;;;;;8.05;3.67;;;23.40;60.20;;;;;;10398692;28;20255;-43
2023/11/05 19:10:58;;;;;;;6.47;3.53;;;23.40;61.00;;;;;;10398810;28;20308;-43
2023/11/05 19:16:04;;;;;;;9.85;3.80;;;23.40;60.30;;;;;;10403934;28;20275;-48
2023/11/05 19:21:09;;;;;;;6.40;3.22;;;23.40;60.20;;;;;;10400820;28;20240;-47
2023/11/05 19:26:13;;;;;;;8.07;3.05;;;23.30;60.10;;;;;;10396288;28;20244;-45
2023/11/05 19:31:16;;;;;;;7.05;3.53;;;23.30;60.00;;;;;;10402964;28;20644;-44
2023/11/05 19:36:23;;;;;;;4.93;3.13;;;23.30;60.10;;;;;;10401898;28;20247;-45
2023/11/05 19:41:30;;;;;;;6.25;3.00;;;23.40;60.20;;;;;;10398788;28;20626;-47
2023/11/05 19:46:34;;;;;;;6.38;3.13;;;23.40;60.20;;;;;;10399158;28;20245;-43
2023/11/05 19:51:39;;;;;;;5.55;3.00;;;23.30;60.10;;;;;;10405095;28;20578;-48
2023/11/05 19:56:43;;;;;;;4.53;2.80;;;23.30;60.10;;;;;;10403544;28;20278;-46
2023/11/05 20:01:47;;;;;;;6.80;2.83;;;23.30;60.10;;;;;;10393564;28;20232;-44
2023/11/05 20:06:59;;;;;;;5.55;2.90;;;23.30;60.10;;;;;;10395122;28;20248;-48
2023/11/05 20:12:02;;;;;;;4.13;3.05;;;23.30;60.10;;;;;;10394470;28;20223;-47
2023/11/05 20:17:06;;;;;;;5.10;2.97;;;23.30;60.10;;;;;;10391272;28;20982;-44
2023/11/05 20:22:12;;;;;;;5.28;2.65;;;23.30;60.10;;;;;;10401974;28;20228;-44
2023/11/05 20:27:16;;;;;;;4.03;2.88;;;23.30;60.10;;;;;;10396816;28;20236;-43
2023/11/05 20:32:20;;;;;;;4.43;2.88;;;23.30;60.00;;;;;;10396899;28;20235;-45
2023/11/05 20:37:24;;;;;;;4.32;2.85;;;23.30;60.00;;;;;;10378667;28;20255;-44
2023/11/05 20:42:28;;;;;;;4.82;2.33;;;23.30;60.00;;;;;;10401594;28;20289;-43
2023/11/05 20:47:32;;;;;;;3.92;2.40;;;23.30;60.00;;;;;;10399501;28;20216;-44
2023/11/05 20:52:37;;;;;;;3.80;2.38;;;23.30;60.00;;;;;;10335995;28;20294;-45
2023/11/05 20:57:41;;;;;;;3.70;2.33;;;23.30;60.00;;;;;;10387549;28;20252;-45
2023/11/05 21:02:45;;;;;;;4.20;2.40;;;23.30;60.00;;;;;;10401184;28;20301;-46
2023/11/05 21:07:50;;;;;;;4.03;2.15;;;23.30;59.90;;;;;;10399869;28;20221;-43
2023/11/05 21:12:54;;;;;;;6.25;2.30;;;23.30;59.90;;;;;;10387187;28;20746;-42
2023/11/05 21:17:57;;;;;;;3.15;2.30;;;23.30;59.90;;;;;;10395715;28;20914;-43
2023/11/05 21:23:02;;;;;;;4.15;2.38;;;23.30;59.90;;;;;;10390680;28;20229;-46
2023/11/05 21:28:06;;;;;;;2.75;2.10;;;23.30;59.90;;;;;;10394620;28;20243;-46
2023/11/05 21:33:10;;;;;;;3.33;1.90;;;23.30;59.90;;;;;;10390576;28;20228;-46
2023/11/05 21:38:15;;;;;;;4.80;2.45;;;23.30;59.90;;;;;;10402980;28;20255;-51
2023/11/05 21:43:18;;;;;;;4.13;2.03;;;23.30;59.90;;;;;;10393921;28;20224;-49
2023/11/05 21:48:22;;;;;;;3.45;2.13;;;23.30;59.90;;;;;;10393476;28;20282;-47
2023/11/05 21:53:28;;;;;;;2.97;1.98;;;23.30;59.90;;;;;;10394038;28;20832;-43
2023/11/05 21:58:31;;;;;;;5.13;2.10;;;23.30;59.90;;;;;;10399951;28;20654;-51
2023/11/05 22:03:35;;;;;;;2.75;2.00;;;23.30;59.80;;;;;;10399179;28;20228;-47
2023/11/05 22:08:41;;;;;;;3.58;1.92;;;23.30;59.80;;;;;;10408684;28;20228;-46
2023/11/05 22:13:44;;;;;;;4.25;2.10;;;23.30;59.80;;;;;;10400463;28;20228;-46
2023/11/05 22:18:48;;;;;;;24.45;3.20;;;23.30;59.80;;;;;;10421836;28;20228;-49
2023/11/05 22:23:56;;;;;;;10.70;2.65;;;23.30;59.90;;;;;;10405454;28;20204;-45
2023/11/05 22:29:00;;;;;;;10.63;2.28;;;23.30;59.80;;;;;;10382532;28;20836;-46
2023/11/05 22:34:04;;;;;;;5.25;2.13;;;23.30;60.60;;;;;;10414051;28;20204;-44
2023/11/05 22:39:09;;;;;;;9.02;1.73;;;23.30;59.80;;;;;;10408389;28;20606;-47
2023/11/05 22:44:13;;;;;;;9.55;2.30;;;23.30;59.80;;;;;;10413434;28;20247;-44
2023/11/05 22:49:16;;;;;;;6.18;1.80;;;23.30;59.80;;;;;;10408963;28;20217;-45
2023/11/05 22:54:29;;;;;;;4.03;1.60;;;23.30;59.80;;;;;;10390141;28;20232;-47
2023/11/05 22:59:32;;;;;;;4.90;2.05;;;23.30;59.80;;;;;;10401358;28;20612;-47
2023/11/05 23:04:36;;;;;;;5.10;1.60;;;23.30;59.80;;;;;;10410908;28;20223;-48
2023/11/05 23:09:41;;;;;;;3.72;1.73;;;23.30;59.80;;;;;;10406039;28;20786;-44
2023/11/05 23:14:44;;;;;;;1.75;1.27;;;23.30;59.80;;;;;;10404917;28;20208;-46
2023/11/05 23:19:49;;;;;;;3.53;1.73;;;23.30;59.80;;;;;;10403453;28;20666;-44
2023/11/05 23:24:54;;;;;;;3.05;1.73;;;23.30;59.80;;;;;;10409867;28;20227;-45
2023/11/05 23:29:58;;;;;;;2.33;1.38;;;23.20;59.70;;;;;;10403993;28;20200;-47
2023/11/05 23:35:02;;;;;;;3.60;1.65;;;23.30;59.80;;;;;;10402610;28;20258;-44
2023/11/05 23:40:08;;;;;;;5.40;1.58;;;23.30;59.70;;;;;;10411436;28;20216;-45
2023/11/05 23:45:12;;;;;;;1.73;1.42;;;23.30;59.80;;;;;;10402398;28;20200;-43
2023/11/05 23:50:17;;;;;;;1.52;1.10;;;23.30;59.70;;;;;;10401063;28;20215;-43
2023/11/05 23:55:24;;;;;;;3.63;1.25;;;23.20;59.60;;;;;;10401662;28;20655;-47
